Time;durP1;ratioP1;P1;durP2;ratioP2;P2;SDS_P1;SDS_P2;PMS_P1;PMS_P2;Temp;Humidity;BMP_temperature;BMP_pressure;BME280_temperature;BME280_humidity;BME280_pressure;Samples;Min_cycle;Max_cycle;Signal;HPM_P1;HPM_P2
2024/04/01 00:01:31;;;;;;;10.98;5.50;;;16.90;99.90;;;;;;4991432;28;20377;-69
2024/04/01 00:03:57;;;;;;;14.82;6.38;;;16.80;99.90;;;;;;5007694;28;20106;-67
2024/04/01 00:06:24;;;;;;;7.95;2.47;;;16.80;99.90;;;;;;4995282;28;20079;-68
2024/04/01 00:08:50;;;;;;;3.58;1.50;;;17.00;99.90;;;;;;4991327;28;20073;-67
2024/04/01 00:11:17;;;;;;;5.93;2.15;;;17.00;99.90;;;;;;4990901;28;20540;-68
2024/04/01 00:13:43;;;;;;;4.60;1.05;;;17.10;99.90;;;;;;5008262;28;20070;-70
2024/04/01 00:16:10;;;;;;;1.75;1.35;;;17.00;99.90;;;;;;4989810;28;20089;-67
2024/04/01 00:18:37;;;;;;;5.03;3.28;;;17.10;99.90;;;;;;5008793;28;20066;-68
2024/04/01 00:21:03;;;;;;;2.08;1.00;;;17.10;99.90;;;;;;4990300;28;20083;-68
2024/04/01 00:23:30;;;;;;;5.55;1.80;;;17.30;99.90;;;;;;5007271;28;20100;-68
2024/04/01 00:25:56;;;;;;;3.00;1.17;;;17.20;99.90;;;;;;5006663;28;20079;-67
2024/04/01 00:28:22;;;;;;;2.55;1.00;;;17.20;99.90;;;;;;5009161;28;20714;-68
2024/04/01 00:30:49;;;;;;;3.88;2.13;;;17.20;99.90;;;;;;4990158;28;20413;-69
2024/04/01 00:33:15;;;;;;;4.63;1.70;;;17.20;99.90;;;;;;5007748;28;20308;-69
2024/04/01 00:35:42;;;;;;;6.50;1.40;;;17.10;99.90;;;;;;5006532;28;20531;-71
2024/04/01 00:38:08;;;;;;;4.40;1.60;;;17.10;99.90;;;;;;5008313;28;20172;-69
2024/04/01 00:40:35;;;;;;;5.05;1.95;;;17.00;99.90;;;;;;5005662;28;20078;-69
2024/04/01 00:43:09;;;;;;;2.40;1.20;;;17.00;99.90;;;;;;5006991;28;20118;-70
2024/04/01 00:45:46;;;;;;;5.40;1.63;;;17.10;99.90;;;;;;5007677;28;20085;-71
2024/04/01 00:48:15;;;;;;;2.67;1.60;;;17.00;99.90;;;;;;5008581;28;20520;-71
2024/04/01 00:50:44;;;;;;;6.13;1.85;;;17.00;99.90;;;;;;4989481;28;20528;-70
2024/04/01 00:53:11;;;;;;;10.02;1.90;;;17.00;99.90;;;;;;5008076;28;20089;-70
2024/04/01 00:55:41;;;;;;;5.97;1.63;;;17.10;99.90;;;;;;5007757;28;20086;-69
2024/04/01 00:58:09;;;;;;;2.88;1.40;;;17.10;99.90;;;;;;4989071;28;20102;-70
2024/04/01 01:00:38;;;;;;;5.35;1.90;;;17.00;99.90;;;;;;5007843;28;20492;-67
2024/04/01 01:03:07;;;;;;;3.63;1.70;;;17.00;99.90;;;;;;4990448;28;20098;-69
2024/04/01 01:05:33;;;;;;;5.13;1.63;;;17.00;99.90;;;;;;4988288;28;20074;-70
2024/04/01 01:08:00;;;;;;;6.82;1.40;;;17.00;99.90;;;;;;4989963;28;20079;-70
2024/04/01 01:10:28;;;;;;;3.22;1.30;;;17.00;99.90;;;;;;4990611;28;20078;-70
2024/04/01 01:12:55;;;;;;;6.60;1.52;;;17.00;99.90;;;;;;4990467;28;20079;-72
2024/04/01 01:15:21;;;;;;;4.57;1.80;;;17.00;99.90;;;;;;5006634;28;20101;-69
2024/04/01 01:17:48;;;;;;;5.88;1.60;;;17.00;99.90;;;;;;5007046;28;20558;-69
2024/04/01 01:20:15;;;;;;;5.35;3.15;;;17.00;99.90;;;;;;4989764;28;20070;-68
2024/04/01 01:22:43;;;;;;;6.28;2.85;;;16.80;99.90;;;;;;5007773;28;20873;-73
2024/04/01 01:25:10;;;;;;;6.32;2.80;;;16.80;99.90;;;;;;4988566;28;20112;-71
2024/04/01 01:27:37;;;;;;;9.50;2.90;;;16.80;99.90;;;;;;5007397;28;20062;-72
2024/04/01 01:30:14;;;;;;;4.93;2.13;;;16.80;99.90;;;;;;5005933;28;20163;-70
2024/04/01 01:33:08;;;;;;;12.18;3.10;;;16.80;99.90;;;;;;4990474;28;20129;-71
2024/04/01 01:35:36;;;;;;;11.10;6.35;;;16.70;99.90;;;;;;5004712;28;20085;-69
2024/04/01 01:38:03;;;;;;;5.65;4.00;;;16.70;99.90;;;;;;4989743;28;20548;-74
2024/04/01 01:40:30;;;;;;;4.53;2.47;;;16.60;99.90;;;;;;4989449;28;20539;-67
2024/04/01 01:42:57;;;;;;;6.20;2.75;;;16.50;99.90;;;;;;5008507;28;20118;-71
2024/04/01 01:45:23;;;;;;;5.90;2.42;;;16.40;99.90;;;;;;4989071;28;20075;-72
2024/04/01 01:47:50;;;;;;;8.82;2.55;;;16.40;99.90;;;;;;5008867;28;20102;-70
2024/04/01 01:50:16;;;;;;;7.13;3.15;;;16.30;99.90;;;;;;5006027;28;20472;-68
2024/04/01 01:52:43;;;;;;;7.35;2.85;;;16.30;99.90;;;;;;4992347;28;20080;-69
2024/04/01 01:55:09;;;;;;;7.50;3.38;;;16.20;99.90;;;;;;5011300;28;20547;-69
2024/04/01 01:57:36;;;;;;;6.47;3.33;;;16.20;99.90;;;;;;4994127;28;20077;-69
2024/04/01 02:00:05;;;;;;;11.20;3.10;;;16.20;99.90;;;;;;4993429;28;20503;-70
2024/04/01 02:02:33;;;;;;;7.18;2.67;;;16.10;99.90;;;;;;5009501;28;20914;-67
2024/04/01 02:04:59;;;;;;;8.68;3.28;;;16.00;99.90;;;;;;4990825;28;20105;-71
2024/04/01 02:07:26;;;;;;;7.90;3.20;;;16.00;99.90;;;;;;5013080;28;20404;-68
2024/04/01 02:09:53;;;;;;;6.57;3.90;;;15.90;99.90;;;;;;4994121;28;20070;-69
2024/04/01 02:12:19;;;;;;;6.85;3.40;;;15.90;99.90;;;;;;5010410;28;20540;-70
2024/04/01 02:14:47;;;;;;;5.85;2.88;;;15.90;99.90;;;;;;4993572;28;20074;-68
2024/04/01 02:17:14;;;;;;;7.30;3.30;;;15.80;99.90;;;;;;5011658;28;20073;-71
2024/04/01 02:19:46;;;;;;;6.45;3.28;;;15.70;99.90;;;;;;4993665;28;20074;-72
2024/04/01 02:22:14;;;;;;;9.77;3.85;;;15.70;99.90;;;;;;4992143;28;20436;-70
2024/04/01 02:24:44;;;;;;;7.13;3.72;;;15.60;99.90;;;;;;4993515;28;20081;-67
2024/04/01 02:27:11;;;;;;;8.07;3.10;;;15.70;99.90;;;;;;4991153;28;20075;-69
2024/04/01 02:29:38;;;;;;;7.38;3.25;;;15.70;99.90;;;;;;5011126;28;20097;-72
2024/04/01 02:32:06;;;;;;;5.13;2.85;;;15.70;99.90;;;;;;5009334;28;20070;-70
2024/04/01 02:34:33;;;;;;;4.20;2.70;;;15.60;99.90;;;;;;5011407;28;20074;-69
2024/04/01 02:36:59;;;;;;;6.88;2.55;;;15.60;99.90;;;;;;5011531;28;20073;-69
2024/04/01 02:39:26;;;;;;;6.60;3.28;;;15.60;99.90;;;;;;4992686;28;20462;-71
2024/04/01 02:41:53;;;;;;;5.25;2.67;;;15.60;99.90;;;;;;5010239;28;20564;-69
2024/04/01 02:44:19;;;;;;;6.72;3.17;;;15.60;99.90;;;;;;5009015;28;20459;-69
2024/04/01 02:46:46;;;;;;;6.95;4.18;;;15.50;99.90;;;;;;5010636;28;20070;-68
2024/04/01 02:49:12;;;;;;;15.15;5.75;;;15.40;99.90;;;;;;4992009;28;20078;-68
2024/04/01 02:51:41;;;;;;;11.07;5.93;;;15.30;99.90;;;;;;4993008;28;20074;-67
2024/04/01 02:54:07;;;;;;;15.50;5.82;;;15.30;99.90;;;;;;4991854;28;20090;-70
2024/04/01 02:56:34;;;;;;;9.02;5.07;;;15.30;99.90;;;;;;5010341;28;20094;-69
2024/04/01 02:59:04;;;;;;;10.57;3.25;;;15.30;99.90;;;;;;5010659;28;20213;-70
2024/04/01 03:01:31;;;;;;;6.35;3.13;;;15.30;99.90;;;;;;5008063;28;20075;-69
2024/04/01 03:04:01;;;;;;;8.52;3.15;;;15.30;99.90;;;;;;5007218;28;20579;-69
2024/04/01 03:06:29;;;;;;;7.80;2.80;;;15.30;99.90;;;;;;5009578;28;20140;-69
2024/04/01 03:08:56;;;;;;;10.65;3.10;;;15.10;99.90;;;;;;5009926;28;20153;-69
2024/04/01 03:11:22;;;;;;;7.38;2.88;;;15.00;99.90;;;;;;4992170;28;20073;-68
2024/04/01 03:13:49;;;;;;;11.68;3.40;;;15.00;99.90;;;;;;4991900;28;20109;-70
2024/04/01 03:16:16;;;;;;;13.05;3.47;;;15.00;99.90;;;;;;4991496;28;20071;-68
2024/04/01 03:18:43;;;;;;;6.90;3.10;;;15.00;99.90;;;;;;5007848;28;20070;-68
2024/04/01 03:21:10;;;;;;;12.20;4.07;;;15.00;99.90;;;;;;5009118;28;20066;-68
2024/04/01 03:23:37;;;;;;;14.30;5.43;;;15.00;99.90;;;;;;5009601;28;20134;-69
2024/04/01 03:26:03;;;;;;;11.70;6.15;;;14.90;99.90;;;;;;5009182;28;20082;-68
2024/04/01 03:28:30;;;;;;;11.68;5.68;;;14.90;99.90;;;;;;4990944;28;20120;-69
2024/04/01 03:30:56;;;;;;;9.95;4.18;;;14.90;99.90;;;;;;5010206;28;20066;-69
2024/04/01 03:33:23;;;;;;;7.00;3.75;;;14.90;99.90;;;;;;4991444;28;20094;-69
2024/04/01 03:35:55;;;;;;;5.78;3.10;;;14.90;99.90;;;;;;5010672;28;20096;-68
2024/04/01 03:38:22;;;;;;;10.63;3.30;;;14.80;99.90;;;;;;5009443;28;20086;-68
2024/04/01 03:40:49;;;;;;;4.70;3.00;;;14.70;99.90;;;;;;4992538;28;20097;-67
2024/04/01 03:43:15;;;;;;;6.88;2.60;;;14.80;99.90;;;;;;4991047;28;20198;-66
2024/04/01 03:45:42;;;;;;;5.50;2.08;;;14.80;99.90;;;;;;5007125;28;20063;-67
2024/04/01 03:48:09;;;;;;;5.05;2.30;;;14.90;99.90;;;;;;5009299;28;20119;-67
2024/04/01 03:50:42;;;;;;;3.67;2.20;;;14.80;99.90;;;;;;5008311;28;20074;-69
2024/04/01 03:53:08;;;;;;;11.13;4.70;;;14.70;99.90;;;;;;4992800;28;20074;-69
2024/04/01 03:55:35;;;;;;;3.55;2.47;;;14.60;99.90;;;;;;5008689;28;20108;-67
2024/04/01 03:58:02;;;;;;;10.82;3.83;;;14.60;99.90;;;;;;5009727;28;20161;-66
2024/04/01 04:00:28;;;;;;;9.43;3.28;;;14.60;99.90;;;;;;4987313;28;20099;-67
2024/04/01 04:02:55;;;;;;;6.93;3.50;;;14.50;99.90;;;;;;5006695;28;20143;-67
2024/04/01 04:05:22;;;;;;;4.55;2.40;;;14.40;99.90;;;;;;5009154;28;20077;-67
2024/04/01 04:07:48;;;;;;;5.65;2.22;;;14.30;99.90;;;;;;5008682;28;20487;-67
2024/04/01 04:10:15;;;;;;;4.72;1.50;;;14.30;99.90;;;;;;5009093;28;20062;-68
2024/04/01 04:12:41;;;;;;;2.85;1.38;;;14.30;99.90;;;;;;5009122;28;20062;-68
2024/04/01 04:15:09;;;;;;;5.00;1.38;;;14.30;99.90;;;;;;4990575;28;20077;-70
2024/04/01 04:17:37;;;;;;;4.10;1.40;;;14.30;99.90;;;;;;5009156;28;20074;-66
2024/04/01 04:20:04;;;;;;;6.18;1.13;;;14.20;99.90;;;;;;5008488;28;20160;-67
2024/04/01 04:22:32;;;;;;;3.53;1.00;;;14.20;99.90;;;;;;4991167;28;20180;-67
2024/04/01 04:25:00;;;;;;;3.05;1.20;;;14.10;99.90;;;;;;5008004;28;20162;-65
2024/04/01 04:27:27;;;;;;;4.25;1.30;;;14.10;99.90;;;;;;5008705;28;20081;-67
2024/04/01 04:29:54;;;;;;;2.15;1.00;;;14.10;99.90;;;;;;5006334;28;20079;-65
2024/04/01 04:32:20;;;;;;;3.05;1.02;;;14.10;99.90;;;;;;5007204;28;20078;-66
2024/04/01 04:34:47;;;;;;;3.88;1.20;;;14.10;99.90;;;;;;4987888;28;20133;-66
2024/04/01 04:37:15;;;;;;;4.50;1.15;;;14.00;99.90;;;;;;5008738;28;20070;-66
2024/04/01 04:39:42;;;;;;;3.22;1.50;;;14.00;99.90;;;;;;4990430;28;20078;-67
2024/04/01 04:42:08;;;;;;;5.95;1.20;;;13.90;99.90;;;;;;4990997;28;20255;-71
2024/04/01 04:44:35;;;;;;;2.42;1.15;;;13.90;99.90;;;;;;5006392;28;20129;-65
2024/04/01 04:47:01;;;;;;;1.48;1.05;;;13.80;99.90;;;;;;5007477;28;20554;-66
2024/04/01 04:49:31;;;;;;;3.10;1.05;;;13.80;99.90;;;;;;5004725;28;20071;-65
2024/04/01 04:51:57;;;;;;;3.17;1.15;;;13.80;99.90;;;;;;5009273;28;21157;-67
2024/04/01 04:54:23;;;;;;;5.80;1.02;;;13.90;99.90;;;;;;5006838;28;20076;-67
2024/04/01 04:56:50;;;;;;;3.60;1.77;;;14.00;99.90;;;;;;5007213;28;20077;-66
2024/04/01 04:59:16;;;;;;;3.85;1.55;;;14.00;99.90;;;;;;5007453;28;20078;-66
2024/04/01 05:01:43;;;;;;;1.70;1.25;;;13.90;99.90;;;;;;5007888;28;20077;-65
2024/04/01 05:04:12;;;;;;;4.47;1.02;;;13.80;99.90;;;;;;4990850;28;20189;-65
2024/04/01 05:06:40;;;;;;;2.80;1.05;;;13.80;99.90;;;;;;5006813;28;20467;-64
2024/04/01 05:09:08;;;;;;;1.73;1.13;;;13.80;99.90;;;;;;5008141;28;20079;-67
2024/04/01 05:11:36;;;;;;;4.13;2.65;;;13.70;99.90;;;;;;5009157;28;20074;-68
2024/04/01 05:14:05;;;;;;;6.25;3.90;;;13.60;99.90;;;;;;4988403;28;20472;-67
2024/04/01 05:16:32;;;;;;;5.97;3.20;;;13.70;99.90;;;;;;5008151;28;20077;-66
2024/04/01 05:18:58;;;;;;;5.65;2.50;;;13.60;99.90;;;;;;5007196;28;20074;-66
2024/04/01 05:21:25;;;;;;;3.85;2.13;;;13.60;99.90;;;;;;5008207;28;20089;-67
2024/04/01 05:23:52;;;;;;;3.28;2.08;;;13.60;99.90;;;;;;4988447;28;20560;-68
2024/04/01 05:26:20;;;;;;;3.40;2.38;;;13.50;99.90;;;;;;5006756;28;20062;-66
2024/04/01 05:28:47;;;;;;;3.55;2.75;;;13.60;99.90;;;;;;5007166;28;20544;-68
2024/04/01 05:31:13;;;;;;;2.67;1.55;;;13.60;99.90;;;;;;4990203;28;20474;-66
2024/04/01 05:33:40;;;;;;;2.97;1.40;;;13.50;99.90;;;;;;5006034;28;20067;-68
2024/04/01 05:36:07;;;;;;;3.97;1.20;;;13.50;99.90;;;;;;5006839;28;20153;-70
2024/04/01 05:38:34;;;;;;;1.48;1.15;;;13.50;99.90;;;;;;4990890;28;20121;-67
2024/04/01 05:41:00;;;;;;;3.03;1.30;;;13.50;99.90;;;;;;4992996;28;20073;-72
2024/04/01 05:43:28;;;;;;;3.97;1.00;;;13.40;99.90;;;;;;5007801;28;20567;-67
2024/04/01 05:45:55;;;;;;;2.33;1.00;;;13.30;99.90;;;;;;5007745;28;20066;-66
2024/04/01 05:48:22;;;;;;;5.30;1.27;;;13.30;99.90;;;;;;4981484;28;20117;-65
2024/04/01 05:50:51;;;;;;;3.50;1.10;;;13.30;99.90;;;;;;5006516;28;20067;-66
2024/04/01 05:53:18;;;;;;;5.43;1.17;;;13.30;99.90;;;;;;5008725;28;20563;-66
2024/04/01 05:55:46;;;;;;;4.85;0.90;;;13.30;99.90;;;;;;4989007;28;20079;-69
2024/04/01 05:58:13;;;;;;;2.47;0.82;;;13.20;99.90;;;;;;5007688;28;20583;-67
2024/04/01 06:00:39;;;;;;;2.25;0.93;;;13.30;99.90;;;;;;4988995;28;20100;-66
2024/04/01 06:03:06;;;;;;;4.53;0.98;;;13.30;99.90;;;;;;5007936;28;20455;-70
2024/04/01 06:05:33;;;;;;;1.65;1.27;;;13.30;99.90;;;;;;5006658;28;20079;-67
2024/04/01 06:08:00;;;;;;;3.92;1.00;;;13.30;99.90;;;;;;4988062;28;20078;-66
2024/04/01 06:10:26;;;;;;;2.05;1.20;;;13.20;99.90;;;;;;4989489;28;20157;-65
2024/04/01 06:12:54;;;;;;;3.28;1.27;;;13.10;99.90;;;;;;5006657;28;20066;-69
2024/04/01 06:15:22;;;;;;;2.55;1.25;;;13.00;99.90;;;;;;5006032;28;20717;-65
2024/04/01 06:17:50;;;;;;;3.60;1.30;;;13.00;99.90;;;;;;4989391;28;20130;-69
2024/04/01 06:20:17;;;;;;;2.05;0.82;;;12.90;99.90;;;;;;5007570;28;20098;-64
2024/04/01 06:22:43;;;;;;;2.47;0.80;;;12.90;99.90;;;;;;5007527;28;20118;-65
2024/04/01 06:25:10;;;;;;;3.83;0.98;;;12.80;99.90;;;;;;5005375;28;20070;-66
2024/04/01 06:27:37;;;;;;;1.92;0.90;;;12.80;99.90;;;;;;5006774;28;20079;-66
2024/04/01 06:30:04;;;;;;;2.58;0.90;;;12.80;99.90;;;;;;5006833;28;20078;-65
2024/04/01 06:32:30;;;;;;;2.30;0.80;;;12.80;99.90;;;;;;5006263;28;20078;-65
2024/04/01 06:34:57;;;;;;;3.95;0.90;;;12.90;99.90;;;;;;5004940;28;20078;-67
2024/04/01 06:37:23;;;;;;;4.45;0.73;;;12.80;99.90;;;;;;5005343;28;20768;-66
2024/04/01 06:39:54;;;;;;;4.88;0.80;;;12.90;99.90;;;;;;5011019;28;20067;-65
2024/04/01 06:42:21;;;;;;;3.80;0.95;;;12.90;99.90;;;;;;5009866;28;20169;-64
2024/04/01 06:44:50;;;;;;;3.35;0.82;;;12.90;99.90;;;;;;4993412;28;20074;-65
2024/04/01 06:47:17;;;;;;;3.72;0.93;;;12.80;99.90;;;;;;5009860;28;20116;-65
2024/04/01 06:49:43;;;;;;;7.35;1.13;;;12.90;99.90;;;;;;5009985;28;20070;-66
2024/04/01 06:52:10;;;;;;;4.03;1.17;;;13.00;99.90;;;;;;5010295;28;20113;-68
2024/04/01 06:54:37;;;;;;;4.97;1.75;;;13.10;99.90;;;;;;4992433;28;20149;-65
2024/04/01 06:57:03;;;;;;;5.43;2.30;;;13.00;99.90;;;;;;5010396;28;20470;-65
2024/04/01 06:59:30;;;;;;;4.32;1.70;;;13.00;99.90;;;;;;5011171;28;20078;-65
2024/04/01 07:01:56;;;;;;;5.72;1.42;;;13.00;99.90;;;;;;5010219;28;20062;-65
2024/04/01 07:04:22;;;;;;;3.78;1.55;;;13.00;99.90;;;;;;4990131;28;20102;-66
2024/04/01 07:06:49;;;;;;;4.95;1.50;;;13.00;99.90;;;;;;5008723;28;20071;-65
2024/04/01 07:09:15;;;;;;;5.93;1.25;;;12.90;99.90;;;;;;5008721;28;20541;-65
2024/04/01 07:11:42;;;;;;;6.15;1.77;;;12.90;99.90;;;;;;5010487;28;20106;-66
2024/04/01 07:14:08;;;;;;;6.18;2.33;;;12.90;99.90;;;;;;5007358;28;20098;-65
2024/04/01 07:16:35;;;;;;;6.15;2.42;;;12.90;99.90;;;;;;5010032;28;20128;-65
2024/04/01 07:19:02;;;;;;;10.88;5.00;;;13.00;99.90;;;;;;4989150;28;20494;-65
2024/04/01 07:21:29;;;;;;;9.60;4.78;;;13.00;99.90;;;;;;5010456;28;20073;-65
2024/04/01 07:23:55;;;;;;;10.48;4.72;;;13.00;99.90;;;;;;5009302;28;20136;-65
2024/04/01 07:26:22;;;;;;;8.13;3.13;;;13.00;99.90;;;;;;5009533;28;20413;-66
2024/04/01 07:28:49;;;;;;;7.13;3.60;;;13.00;99.90;;;;;;5009449;28;20066;-65
2024/04/01 07:31:16;;;;;;;9.85;5.00;;;13.00;99.90;;;;;;5009863;28;20078;-64
2024/04/01 07:33:43;;;;;;;4.70;2.78;;;13.10;99.90;;;;;;5009086;28;20070;-64
2024/04/01 07:36:09;;;;;;;;;;;13.20;99.90;;;;;;5009984;28;20121;-67
2024/04/01 07:38:35;;;;;;;6.88;1.90;;;13.30;99.90;;;;;;5009791;28;19954;-66
2024/04/01 07:41:02;;;;;;;5.72;1.80;;;13.30;99.90;;;;;;5008889;28;20085;-69
2024/04/01 07:43:28;;;;;;;4.70;1.67;;;13.30;99.90;;;;;;5008501;28;20660;-65
2024/04/01 07:45:55;;;;;;;5.68;1.88;;;13.40;99.90;;;;;;5009887;28;20067;-67
2024/04/01 07:48:22;;;;;;;5.20;1.80;;;13.30;99.90;;;;;;5008607;28;20070;-68
2024/04/01 07:50:48;;;;;;;6.40;2.55;;;13.40;99.90;;;;;;5007974;28;20075;-63
2024/04/01 07:53:15;;;;;;;7.28;2.67;;;13.30;99.90;;;;;;5006451;28;20211;-65
2024/04/01 07:55:42;;;;;;;5.90;2.40;;;13.30;99.90;;;;;;5008299;28;20149;-65
2024/04/01 07:58:08;;;;;;;5.88;2.70;;;13.30;99.90;;;;;;5008096;28;20157;-66
2024/04/01 08:00:37;;;;;;;8.45;2.53;;;13.30;99.90;;;;;;5008980;28;20071;-68
2024/04/01 08:03:04;;;;;;;4.10;2.20;;;13.30;99.90;;;;;;5008213;28;20129;-65
2024/04/01 08:05:30;;;;;;;4.63;2.20;;;13.40;99.90;;;;;;5009157;28;20556;-64
2024/04/01 08:07:56;;;;;;;5.75;2.10;;;13.40;99.90;;;;;;5008962;28;20528;-64
2024/04/01 08:10:23;;;;;;;11.52;2.58;;;13.40;99.90;;;;;;5008168;28;20086;-64
2024/04/01 08:12:49;;;;;;;7.40;2.50;;;13.50;99.90;;;;;;5008920;28;20520;-64
2024/04/01 08:15:16;;;;;;;7.88;3.10;;;13.60;99.90;;;;;;5008573;28;20067;-65
2024/04/01 08:17:43;;;;;;;7.40;2.70;;;13.60;99.90;;;;;;5007606;28;20070;-64
2024/04/01 08:20:10;;;;;;;12.18;3.47;;;13.60;99.90;;;;;;5008078;28;20158;-63
2024/04/01 08:22:36;;;;;;;15.13;4.30;;;13.60;99.90;;;;;;5009554;28;20102;-64
2024/04/01 08:25:04;;;;;;;20.15;4.50;;;13.50;99.90;;;;;;5007401;28;20160;-65
2024/04/01 08:27:31;;;;;;;11.82;4.85;;;13.60;99.90;;;;;;5008071;28;20097;-65
2024/04/01 08:29:58;;;;;;;15.82;4.38;;;13.60;99.90;;;;;;5008239;28;20075;-65
2024/04/01 08:32:25;;;;;;;14.02;5.45;;;13.60;99.90;;;;;;4990300;28;20074;-64
2024/04/01 08:34:51;;;;;;;17.83;5.07;;;13.60;99.90;;;;;;4987967;28;20209;-65
2024/04/01 08:37:17;;;;;;;14.40;5.85;;;13.50;99.90;;;;;;4989609;28;20166;-65
2024/04/01 08:39:44;;;;;;;15.68;5.75;;;13.50;99.90;;;;;;5008329;28;20146;-64
2024/04/01 08:42:13;;;;;;;;;;;13.50;99.90;;;;;;4990268;28;20168;-66
2024/04/01 08:44:43;;;;;;;16.33;8.00;;;13.60;99.90;;;;;;5008431;28;19962;-64
2024/04/01 08:47:11;;;;;;;15.20;7.72;;;13.60;99.90;;;;;;5007636;28;20212;-65
2024/04/01 08:49:45;;;;;;;26.23;11.02;;;13.70;99.90;;;;;;5007648;28;20097;-64
2024/04/01 08:52:16;;;;;;;24.23;12.48;;;13.70;99.90;;;;;;5007613;28;20071;-64
2024/04/01 08:54:43;;;;;;;18.75;12.43;;;13.60;99.90;;;;;;5007197;28;20079;-64
2024/04/01 08:57:10;;;;;;;22.10;13.40;;;13.50;99.90;;;;;;5006015;28;20067;-63
2024/04/01 08:59:37;;;;;;;25.30;13.63;;;13.60;99.90;;;;;;5007783;28;20070;-66
2024/04/01 09:02:03;;;;;;;20.38;12.15;;;13.70;99.90;;;;;;4989941;28;20078;-63
2024/04/01 09:04:31;;;;;;;22.80;13.60;;;13.80;99.90;;;;;;4990312;28;20152;-66
2024/04/01 09:06:58;;;;;;;23.13;13.40;;;13.80;99.90;;;;;;5007538;28;20117;-65
2024/04/01 09:09:25;;;;;;;19.95;12.60;;;13.70;99.90;;;;;;5007905;28;20135;-64
2024/04/01 09:11:52;;;;;;;21.00;11.98;;;13.70;99.90;;;;;;4988729;28;20076;-64
2024/04/01 09:14:18;;;;;;;19.83;11.93;;;13.70;99.90;;;;;;5007987;28;20078;-65
2024/04/01 09:16:48;;;;;;;20.15;11.45;;;13.70;99.90;;;;;;5008530;28;20551;-64
2024/04/01 09:19:16;;;;;;;18.23;11.07;;;13.70;99.90;;;;;;4989494;28;20070;-66
2024/04/01 09:21:43;;;;;;;18.55;11.55;;;13.70;99.90;;;;;;5006996;28;20201;-64
2024/04/01 09:24:10;;;;;;;;;;;13.80;99.90;;;;;;5007056;28;20183;-64
2024/04/01 09:26:36;;;;;;;15.50;11.30;;;13.80;99.90;;;;;;5007753;28;19954;-64
2024/04/01 09:29:03;;;;;;;20.27;11.48;;;13.80;99.90;;;;;;4988901;28;20161;-64
2024/04/01 09:31:30;;;;;;;17.95;12.88;;;13.70;99.90;;;;;;5005012;28;20075;-66
2024/04/01 09:33:56;;;;;;;19.25;11.63;;;13.60;99.90;;;;;;5005057;28;20127;-65
2024/04/01 09:36:24;;;;;;;17.00;11.15;;;13.60;99.90;;;;;;5005739;28;20196;-65
2024/04/01 09:38:57;;;;;;;16.20;11.13;;;13.70;99.90;;;;;;5006894;28;20544;-64
2024/04/01 09:41:24;;;;;;;19.08;11.50;;;13.80;99.90;;;;;;5007330;28;20074;-63
2024/04/01 09:43:57;;;;;;;15.57;10.50;;;13.80;99.90;;;;;;5005665;28;20102;-63
2024/04/01 09:46:25;;;;;;;17.92;11.45;;;13.90;99.90;;;;;;5007536;28;20078;-63
2024/04/01 09:48:52;;;;;;;15.20;11.70;;;13.80;99.90;;;;;;5007206;28;20173;-64
2024/04/01 09:51:22;;;;;;;18.98;12.63;;;13.90;99.90;;;;;;5007429;28;20071;-64
2024/04/01 09:53:48;;;;;;;13.45;10.20;;;13.90;99.90;;;;;;5006110;28;20075;-64
2024/04/01 09:56:36;;;;;;;17.63;11.95;;;13.90;99.90;;;;;;5006167;28;20216;-64
2024/04/01 09:59:52;;;;;;;15.45;11.10;;;13.90;99.90;;;;;;5004295;28;20078;-65
2024/04/01 10:02:33;;;;;;;21.67;11.60;;;14.00;99.90;;;;;;4989700;28;20081;-63
2024/04/01 10:05:18;;;;;;;16.10;12.00;;;14.10;99.90;;;;;;5005228;28;20066;-65
2024/04/01 10:07:53;;;;;;;18.80;12.70;;;13.90;99.90;;;;;;4989432;28;20432;-63
2024/04/01 10:10:38;;;;;;;19.45;13.00;;;13.90;99.90;;;;;;5004289;28;20070;-64
2024/04/01 10:13:26;;;;;;;14.35;11.07;;;13.80;99.90;;;;;;5007052;28;20072;-66
2024/04/01 10:16:26;;;;;;;14.82;10.13;;;13.80;99.90;;;;;;5010845;28;20082;-65
2024/04/01 10:19:28;;;;;;;16.00;9.65;;;13.90;99.90;;;;;;5010284;28;20109;-65
2024/04/01 10:22:28;;;;;;;13.73;9.50;;;13.90;99.90;;;;;;4966554;28;20078;-65
2024/04/01 10:25:08;;;;;;;15.07;9.48;;;13.80;99.90;;;;;;5010684;28;20712;-64
2024/04/01 10:28:11;;;;;;;16.52;9.82;;;13.70;99.90;;;;;;5010103;28;20070;-64
2024/04/01 10:30:53;;;;;;;18.25;8.85;;;13.70;99.90;;;;;;5009390;28;20102;-64
2024/04/01 10:33:56;;;;;;;16.23;9.60;;;13.70;99.90;;;;;;5009232;28;20118;-63
2024/04/01 10:36:41;;;;;;;14.93;8.48;;;13.70;99.90;;;;;;5009630;28;20080;-63
2024/04/01 10:39:10;;;;;;;10.98;8.23;;;13.70;99.90;;;;;;5009644;28;20087;-64
2024/04/01 10:41:57;;;;;;;13.77;8.98;;;13.70;99.90;;;;;;5009254;28;20584;-65
2024/04/01 10:44:42;;;;;;;;;;;13.80;99.90;;;;;;4993678;28;20129;-65
2024/04/01 10:47:11;;;;;;;14.23;8.45;;;13.80;99.90;;;;;;5010412;28;20056;-70
2024/04/01 10:49:54;;;;;;;15.07;8.63;;;13.80;99.90;;;;;;5008901;28;20118;-63
2024/04/01 10:52:49;;;;;;;13.63;7.60;;;13.80;99.90;;;;;;5009656;28;20167;-62
2024/04/01 10:55:38;;;;;;;14.85;8.50;;;13.70;99.90;;;;;;5008566;28;20469;-63
2024/04/01 10:58:49;;;;;;;11.02;8.95;;;13.70;99.90;;;;;;5009561;28;20078;-63
2024/04/01 11:01:22;;;;;;;15.00;9.68;;;13.60;99.90;;;;;;5010249;28;20128;-68
2024/04/01 11:04:11;;;;;;;13.48;8.38;;;13.60;99.90;;;;;;5008826;28;20180;-64
2024/04/01 11:06:56;;;;;;;12.55;9.02;;;13.70;99.90;;;;;;5009052;28;20075;-63
2024/04/01 11:09:43;;;;;;;15.45;9.35;;;13.70;99.90;;;;;;5007928;28;20093;-64
2024/04/01 11:12:23;;;;;;;12.98;8.48;;;13.70;99.90;;;;;;5008597;28;20105;-64
2024/04/01 11:14:54;;;;;;;10.85;8.10;;;13.70;99.90;;;;;;5009249;28;20070;-67
2024/04/01 11:17:21;;;;;;;12.70;7.57;;;13.80;99.90;;;;;;5006707;28;20140;-64
2024/04/01 11:20:00;;;;;;;10.10;7.20;;;13.70;99.90;;;;;;5010532;28;20074;-64
2024/04/01 11:22:50;;;;;;;12.10;7.72;;;13.70;99.90;;;;;;5007555;28;20078;-66
2024/04/01 11:25:35;;;;;;;13.57;7.38;;;13.70;99.90;;;;;;5007743;28;20074;-64
2024/04/01 11:28:22;;;;;;;14.18;7.50;;;13.60;99.90;;;;;;5009892;28;20126;-64
2024/04/01 11:31:04;;;;;;;9.35;5.40;;;13.60;99.90;;;;;;5010217;28;20439;-64
2024/04/01 11:33:40;;;;;;;6.50;4.68;;;13.60;99.90;;;;;;5007419;28;20094;-63
2024/04/01 11:36:08;;;;;;;8.63;4.82;;;13.60;99.90;;;;;;4991135;28;20531;-63
2024/04/01 11:38:56;;;;;;;11.73;4.75;;;13.70;99.90;;;;;;5008681;28;20074;-63
2024/04/01 11:41:24;;;;;;;11.10;4.30;;;13.80;99.90;;;;;;5009375;28;21360;-64
2024/04/01 11:43:52;;;;;;;7.82;4.55;;;13.80;99.90;;;;;;5009450;28;20090;-63
2024/04/01 11:46:20;;;;;;;7.50;4.53;;;13.70;99.90;;;;;;5008180;28;20082;-63
2024/04/01 11:48:54;;;;;;;9.18;3.88;;;13.70;99.90;;;;;;5007787;28;20086;-63
2024/04/01 11:51:34;;;;;;;8.35;4.10;;;13.70;99.90;;;;;;5008061;28;20077;-64
2024/04/01 11:54:01;;;;;;;6.30;3.03;;;13.80;99.90;;;;;;4992102;28;20168;-63
2024/04/01 11:56:41;;;;;;;4.00;2.40;;;13.80;99.90;;;;;;5009256;28;20213;-62
2024/04/01 11:59:11;;;;;;;4.57;2.45;;;13.90;99.90;;;;;;5008606;28;20553;-64
2024/04/01 12:01:38;;;;;;;5.85;3.10;;;13.90;99.90;;;;;;5009336;28;20089;-64
2024/04/01 12:04:06;;;;;;;5.93;2.95;;;13.90;99.90;;;;;;5008487;28;21483;-64
2024/04/01 12:06:34;;;;;;;4.85;2.70;;;13.80;99.90;;;;;;5009659;28;20181;-64
2024/04/01 12:09:03;;;;;;;5.43;2.17;;;13.70;99.90;;;;;;4990764;28;20518;-64
2024/04/01 12:11:32;;;;;;;4.10;2.33;;;13.70;99.90;;;;;;4990858;28;20481;-65
2024/04/01 12:14:01;;;;;;;5.10;2.33;;;13.70;99.90;;;;;;5006986;28;20067;-64
2024/04/01 12:16:32;;;;;;;4.68;2.35;;;13.70;99.90;;;;;;5009779;28;20082;-63
2024/04/01 12:19:02;;;;;;;2.55;1.80;;;13.70;99.90;;;;;;5006702;28;20078;-64
2024/04/01 12:21:32;;;;;;;3.50;2.05;;;13.70;99.90;;;;;;4991494;28;20098;-62
2024/04/01 12:23:59;;;;;;;4.90;2.05;;;13.70;99.90;;;;;;4991473;28;20197;-64
2024/04/01 12:26:37;;;;;;;3.88;1.70;;;13.70;99.90;;;;;;5006827;28;20524;-63
2024/04/01 12:29:03;;;;;;;7.55;2.10;;;13.80;99.90;;;;;;4989796;28;20432;-63
2024/04/01 12:31:30;;;;;;;6.90;2.17;;;13.80;99.90;;;;;;5008280;28;20598;-63
2024/04/01 12:33:57;;;;;;;6.00;2.30;;;13.90;99.90;;;;;;5006914;28;20077;-63
2024/04/01 12:36:25;;;;;;;4.55;2.15;;;13.80;99.90;;;;;;5007020;28;20071;-64
2024/04/01 12:38:52;;;;;;;5.63;2.53;;;13.90;99.90;;;;;;5008575;28;20074;-64
2024/04/01 12:41:19;;;;;;;8.77;2.85;;;13.90;99.90;;;;;;5008358;28;20080;-64
2024/04/01 12:43:46;;;;;;;4.65;2.00;;;13.80;99.90;;;;;;5009141;28;20106;-64
2024/04/01 12:46:14;;;;;;;5.25;2.30;;;13.80;99.90;;;;;;5006287;28;20071;-63
2024/04/01 12:48:41;;;;;;;5.47;2.30;;;13.80;99.90;;;;;;5007771;28;20067;-63
2024/04/01 12:51:10;;;;;;;6.38;2.70;;;13.80;99.90;;;;;;5006732;28;20070;-65
2024/04/01 12:53:58;;;;;;;8.00;2.10;;;13.80;99.90;;;;;;5007688;28;20560;-64
2024/04/01 12:56:43;;;;;;;3.42;2.33;;;13.70;99.90;;;;;;5008223;28;20067;-63